createdAt,value
2018-12-02T00:00:28.893Z,7.40
2018-12-02T00:02:57.448Z,7.40
2018-12-02T00:05:26.507Z,7.50
2018-12-02T00:07:54.992Z,7.50
2018-12-02T00:10:24.035Z,7.50
2018-12-02T00:12:52.539Z,7.50
2018-12-02T00:15:23.559Z,7.50
2018-12-02T00:17:54.274Z,7.40
2018-12-02T00:20:22.754Z,7.40
2018-12-02T00:22:51.279Z,7.40
2018-12-02T00:25:19.817Z,7.40
2018-12-02T00:27:52.315Z,7.50
2018-12-02T00:30:22.735Z,7.50
2018-12-02T00:32:51.264Z,7.50
2018-12-02T00:35:19.835Z,7.50
2018-12-02T00:37:49.578Z,7.50
2018-12-02T00:40:19.144Z,7.50
2018-12-02T00:42:48.756Z,7.50
2018-12-02T00:45:18.428Z,7.50
2018-12-02T00:47:47.044Z,7.50
2018-12-02T00:50:18.323Z,7.50
2018-12-02T00:52:48.120Z,7.50
2018-12-02T00:55:24.544Z,7.50
2018-12-02T00:57:53.068Z,7.50
2018-12-02T01:00:21.548Z,7.50
2018-12-02T01:02:50.833Z,7.50
2018-12-02T01:05:20.305Z,7.50
2018-12-02T01:07:48.820Z,7.50
2018-12-02T01:10:19.224Z,7.50
2018-12-02T01:12:48.683Z,7.50
2018-12-02T01:15:19.243Z,7.60
2018-12-02T01:17:47.769Z,7.50
2018-12-02T01:20:20.879Z,7.50
2018-12-02T01:22:49.433Z,7.60
2018-12-02T01:25:17.985Z,7.60
2018-12-02T01:27:46.955Z,7.60
2018-12-02T01:30:19.380Z,7.60
2018-12-02T01:32:48.020Z,7.60
2018-12-02T01:35:17.443Z,7.60
2018-12-02T01:37:45.937Z,7.60
2018-12-02T01:40:21.428Z,7.60
2018-12-02T01:42:50.780Z,7.60
2018-12-02T01:45:23.328Z,7.60
2018-12-02T01:47:52.337Z,7.60
2018-12-02T01:50:23.628Z,7.50
2018-12-02T01:52:54.944Z,7.60
2018-12-02T01:55:23.464Z,7.60
2018-12-02T01:57:51.967Z,7.60
2018-12-02T02:00:21.425Z,7.60
2018-12-02T02:02:50.231Z,7.60
2018-12-02T02:05:20.629Z,7.60
2018-12-02T02:07:49.227Z,7.60
2018-12-02T02:10:24.666Z,7.60
2018-12-02T02:12:53.191Z,7.60
2018-12-02T02:15:21.776Z,7.60
2018-12-02T02:17:50.284Z,7.60
2018-12-02T02:20:20.748Z,7.60
2018-12-02T02:22:49.295Z,7.60
2018-12-02T02:25:18.751Z,7.60
2018-12-02T02:27:54.492Z,7.60
2018-12-02T02:30:24.140Z,7.60
2018-12-02T02:32:52.617Z,7.70
2018-12-02T02:35:21.997Z,7.70
2018-12-02T02:37:51.688Z,7.60
2018-12-02T02:40:21.406Z,7.60
2018-12-02T02:42:49.938Z,7.70
2018-12-02T02:45:18.427Z,7.70
2018-12-02T02:47:47.493Z,7.70
2018-12-02T02:50:22.044Z,7.70
2018-12-02T02:52:59.323Z,7.70
2018-12-02T02:55:27.857Z,7.70
2018-12-02T02:57:56.904Z,7.70
2018-12-02T03:00:26.576Z,7.70
2018-12-02T03:02:55.108Z,7.70
2018-12-02T03:05:23.639Z,7.70
2018-12-02T03:07:52.121Z,7.70
2018-12-02T03:10:21.547Z,7.70
2018-12-02T03:12:52.351Z,7.70
2018-12-02T03:15:21.702Z,7.70
2018-12-02T03:17:50.219Z,7.70
2018-12-02T03:20:19.700Z,7.70
2018-12-02T03:22:53.300Z,7.70
2018-12-02T03:25:22.881Z,7.70
2018-12-02T03:27:51.401Z,7.70
2018-12-02T03:30:21.803Z,7.70
2018-12-02T03:32:50.396Z,7.70
2018-12-02T03:35:21.629Z,7.70
2018-12-02T03:37:50.413Z,7.70
2018-12-02T03:40:26.191Z,7.70
2018-12-02T03:42:54.900Z,7.70
2018-12-02T03:45:27.422Z,7.70
2018-12-02T03:47:56.160Z,7.70
2018-12-02T03:50:24.707Z,7.70
2018-12-02T03:52:53.187Z,7.70
2018-12-02T03:55:21.717Z,7.70
2018-12-02T03:57:50.250Z,7.70
2018-12-02T04:00:19.539Z,7.80
2018-12-02T04:02:48.164Z,7.70
2018-12-02T04:05:18.636Z,7.70
2018-12-02T04:07:47.102Z,7.80
2018-12-02T04:10:17.439Z,7.80
2018-12-02T04:12:47.475Z,7.80
2018-12-02T04:15:18.829Z,7.80
2018-12-02T04:17:47.489Z,7.80
2018-12-02T04:20:16.931Z,7.80
2018-12-02T04:22:46.379Z,7.80
2018-12-02T04:25:26.563Z,7.80
2018-12-02T04:27:55.055Z,7.80
2018-12-02T04:30:24.222Z,7.80
2018-12-02T04:32:53.930Z,7.80
2018-12-02T04:35:26.882Z,7.80
2018-12-02T04:37:55.362Z,7.80
2018-12-02T04:40:23.844Z,7.80
2018-12-02T04:42:52.365Z,7.80
2018-12-02T04:45:21.160Z,7.90
2018-12-02T04:47:49.934Z,7.90
2018-12-02T04:50:24.691Z,7.90
2018-12-02T04:52:53.234Z,7.90
2018-12-02T04:55:21.725Z,7.90
2018-12-02T04:57:50.223Z,8.00
2018-12-02T05:00:19.553Z,8.00
2018-12-02T05:02:50.024Z,8.00
2018-12-02T05:05:19.511Z,8.00
2018-12-02T05:07:48.009Z,8.10
2018-12-02T05:10:17.386Z,8.00
2018-12-02T05:12:45.930Z,8.00
2018-12-02T05:15:15.400Z,8.00
2018-12-02T05:17:43.922Z,8.10
2018-12-02T05:20:14.111Z,8.10
2018-12-02T05:22:42.625Z,8.10
2018-12-02T05:25:17.622Z,8.10
2018-12-02T05:27:42.701Z,8.10
2018-12-02T05:30:11.207Z,8.10
2018-12-02T05:32:40.112Z,8.20
2018-12-02T05:35:09.588Z,8.20
2018-12-02T05:37:38.088Z,8.20
2018-12-02T05:40:10.847Z,8.20
2018-12-02T05:42:39.359Z,8.20
2018-12-02T05:45:09.692Z,8.20
2018-12-02T05:47:38.175Z,8.20
2018-12-02T05:50:25.622Z,8.20
2018-12-02T05:52:56.135Z,8.20
2018-12-02T05:55:28.775Z,8.20
2018-12-02T05:57:57.314Z,8.10
2018-12-02T06:00:25.838Z,8.10
2018-12-02T06:02:54.323Z,8.10
2018-12-02T06:05:22.791Z,8.00
2018-12-02T06:07:51.268Z,8.00
2018-12-02T06:10:21.477Z,7.90
2018-12-02T06:12:50.031Z,7.90
2018-12-02T06:15:19.298Z,7.90
2018-12-02T06:17:48.063Z,7.80
2018-12-02T06:20:22.525Z,7.80
2018-12-02T06:22:52.835Z,7.80
2018-12-02T06:25:21.318Z,7.70
2018-12-02T06:27:49.803Z,7.70
2018-12-02T06:30:22.173Z,7.70
2018-12-02T06:32:51.991Z,7.60
2018-12-02T06:35:20.493Z,7.60
2018-12-02T06:37:49.223Z,7.60
2018-12-02T06:40:21.065Z,7.50
2018-12-02T06:42:50.006Z,7.50
2018-12-02T06:45:18.566Z,7.40
2018-12-02T06:47:47.058Z,7.40
2018-12-02T06:50:17.602Z,7.40
2018-12-02T06:52:46.075Z,7.40
2018-12-02T06:55:41.293Z,7.40
2018-12-02T06:59:19.007Z,7.30
2018-12-02T07:03:59.007Z,7.30
2018-12-02T07:06:27.495Z,7.30
2018-12-02T07:08:55.965Z,7.40
2018-12-02T07:11:24.443Z,7.30
2018-12-02T07:13:52.895Z,7.30
2018-12-02T07:16:21.389Z,7.40
2018-12-02T07:18:53.866Z,7.40
2018-12-02T07:21:26.384Z,7.40
2018-12-02T07:23:57.127Z,7.40
2018-12-02T07:26:28.947Z,7.40
2018-12-02T07:28:57.435Z,7.50
2018-12-02T07:31:25.882Z,7.50
2018-12-02T07:33:54.371Z,7.50
2018-12-02T07:36:22.819Z,7.50
2018-12-02T07:39:14.308Z,7.50
2018-12-02T07:41:42.755Z,7.50
2018-12-02T07:44:11.227Z,7.50
2018-12-02T07:46:39.679Z,7.50
2018-12-02T07:49:08.164Z,7.50
2018-12-02T07:51:36.623Z,7.50
2018-12-02T07:54:05.809Z,7.50
2018-12-02T07:56:34.279Z,7.40
2018-12-02T07:59:02.779Z,7.40
2018-12-02T08:01:31.238Z,7.40
2018-12-02T08:03:59.716Z,7.40
2018-12-02T08:06:28.172Z,7.40
2018-12-02T08:08:56.620Z,7.40
2018-12-02T08:11:25.119Z,7.40
2018-12-02T08:13:53.580Z,7.40
2018-12-02T08:16:22.063Z,7.40
2018-12-02T08:18:50.871Z,7.40
2018-12-02T08:21:19.371Z,7.50
2018-12-02T08:23:47.811Z,7.50
2018-12-02T08:26:16.295Z,7.50
2018-12-02T08:28:44.751Z,7.50
2018-12-02T08:31:13.259Z,7.60
2018-12-02T08:33:41.705Z,7.60
2018-12-02T08:36:10.175Z,7.60
2018-12-02T08:38:38.630Z,7.60
2018-12-02T08:41:07.131Z,7.70
2018-12-02T08:43:35.584Z,7.70
2018-12-02T08:46:04.124Z,7.70
2018-12-02T08:48:32.591Z,7.70
2018-12-02T08:51:01.068Z,7.80
2018-12-02T08:53:29.519Z,7.80
2018-12-02T08:55:57.995Z,7.80
2018-12-02T08:58:26.443Z,7.90
2018-12-02T09:00:54.912Z,7.90
2018-12-02T09:03:23.371Z,7.90
2018-12-02T09:05:51.868Z,8.00
2018-12-02T09:08:20.335Z,8.00
2018-12-02T09:10:48.858Z,8.10
2018-12-02T09:13:17.339Z,8.10
2018-12-02T09:15:45.811Z,8.20
2018-12-02T09:18:14.257Z,8.20
2018-12-02T09:20:42.731Z,8.20
2018-12-02T09:23:13.130Z,8.30
2018-12-02T09:25:40.594Z,8.30
2018-12-02T09:28:09.563Z,8.30
2018-12-02T09:30:38.562Z,8.30
2018-12-02T09:33:07.046Z,8.30
2018-12-02T09:35:35.534Z,8.40
2018-12-02T09:38:03.995Z,8.40
2018-12-02T09:40:32.463Z,8.40
2018-12-02T09:43:00.915Z,8.40
2018-12-02T09:45:30.167Z,8.50
2018-12-02T09:48:00.367Z,8.50
2018-12-02T09:50:28.892Z,8.50
2018-12-02T09:52:57.360Z,8.50
2018-12-02T09:55:30.441Z,8.60
2018-12-02T09:57:58.921Z,8.60
2018-12-02T10:00:27.447Z,8.60
2018-12-02T10:02:55.898Z,8.70
2018-12-02T10:05:24.387Z,8.80
2018-12-02T10:07:52.903Z,8.80
2018-12-02T10:10:23.100Z,8.80
2018-12-02T10:12:58.186Z,8.80
2018-12-02T10:15:26.690Z,8.80
2018-12-02T10:17:55.143Z,8.90
2018-12-02T10:20:23.646Z,8.90
2018-12-02T10:22:52.123Z,8.90
2018-12-02T10:25:20.667Z,9.00
2018-12-02T10:27:49.176Z,9.00
2018-12-02T10:30:20.667Z,9.00
2018-12-02T10:32:49.643Z,9.00
2018-12-02T10:35:18.168Z,9.00
2018-12-02T10:37:46.752Z,9.00
2018-12-02T10:40:16.322Z,9.10
2018-12-02T10:42:44.979Z,9.10
2018-12-02T10:45:17.503Z,9.10
2018-12-02T10:47:45.960Z,9.10
2018-12-02T10:50:16.817Z,9.10
2018-12-02T10:52:45.289Z,9.10
2018-12-02T10:55:17.339Z,9.10
2018-12-02T10:57:45.803Z,9.10
2018-12-02T11:00:20.575Z,9.10
2018-12-02T11:02:49.048Z,9.10
2018-12-02T11:05:17.504Z,9.10
2018-12-02T11:07:45.964Z,9.20
2018-12-02T11:10:14.603Z,9.20
2018-12-02T11:12:43.047Z,9.20
2018-12-02T11:15:13.103Z,9.20
2018-12-02T11:17:41.610Z,9.20
2018-12-02T11:20:12.619Z,9.30
2018-12-02T11:22:41.071Z,9.30
2018-12-02T11:25:13.776Z,9.30
2018-12-02T11:27:42.299Z,9.30
2018-12-02T11:30:15.660Z,9.30
2018-12-02T11:32:45.692Z,9.30
2018-12-02T11:35:17.248Z,9.30
2018-12-02T11:37:46.206Z,9.30
2018-12-02T11:40:16.863Z,9.30
2018-12-02T11:42:45.382Z,9.30
2018-12-02T11:45:14.797Z,9.20
2018-12-02T11:47:44.430Z,9.30
2018-12-02T11:50:15.157Z,9.30
2018-12-02T11:52:43.682Z,9.30
2018-12-02T11:55:13.804Z,9.30
2018-12-02T11:57:42.296Z,9.30
2018-12-02T12:00:14.799Z,9.30
2018-12-02T12:02:43.291Z,9.30
2018-12-02T12:05:12.111Z,9.30
2018-12-02T12:07:41.287Z,9.40
2018-12-02T12:10:12.121Z,9.40
2018-12-02T12:12:40.627Z,9.40
2018-12-02T12:15:11.336Z,9.40
2018-12-02T12:17:39.807Z,9.40
2018-12-02T12:20:10.515Z,9.50
2018-12-02T12:22:39.003Z,9.60
2018-12-02T12:25:08.689Z,9.60
2018-12-02T12:27:36.955Z,9.60
2018-12-02T12:30:10.971Z,9.60
2018-12-02T12:32:39.443Z,9.70
2018-12-02T12:35:09.440Z,9.70
2018-12-02T12:37:38.155Z,9.80
2018-12-02T12:40:17.487Z,9.80
2018-12-02T12:42:54.935Z,9.80
2018-12-02T12:45:23.415Z,9.90
2018-12-02T12:47:51.900Z,10.00
2018-12-02T12:50:20.403Z,10.10
2018-12-02T12:52:48.891Z,10.20
2018-12-02T12:55:17.719Z,10.20
2018-12-02T12:57:46.429Z,10.30
2018-12-02T13:00:22.211Z,10.30
2018-12-02T13:02:50.778Z,10.30
2018-12-02T13:05:21.452Z,10.40
2018-12-02T13:07:50.059Z,10.40
2018-12-02T13:10:18.818Z,10.40
2018-12-02T13:12:47.343Z,10.40
2018-12-02T13:15:23.119Z,10.40
2018-12-02T13:18:07.811Z,10.40
2018-12-02T13:20:46.780Z,10.50
2018-12-02T13:23:15.239Z,10.50
2018-12-02T13:25:43.773Z,10.50
2018-12-02T13:28:12.211Z,10.60
2018-12-02T13:30:40.751Z,10.60
2018-12-02T13:33:09.224Z,10.60
2018-12-02T13:35:38.868Z,10.60
2018-12-02T13:38:07.378Z,10.70
2018-12-02T13:40:36.642Z,10.70
2018-12-02T13:43:09.072Z,10.70
2018-12-02T13:45:37.567Z,10.70
2018-12-02T13:48:06.564Z,10.70
2018-12-02T13:50:35.075Z,10.70
2018-12-02T13:53:03.585Z,10.80
2018-12-02T13:55:32.411Z,10.70
2018-12-02T13:58:01.955Z,10.80
2018-12-02T14:00:31.093Z,10.80
2018-12-02T14:03:03.714Z,10.90
2018-12-02T14:05:32.211Z,10.90
2018-12-02T14:08:00.679Z,10.90
2018-12-02T14:10:29.168Z,10.90
2018-12-02T14:12:58.946Z,10.90
2018-12-02T14:17:41.861Z,11.00
2018-12-02T14:20:10.324Z,11.00
2018-12-02T14:22:38.811Z,11.10
2018-12-02T14:25:11.726Z,11.10
2018-12-02T14:27:41.894Z,11.10
2018-12-02T14:30:14.867Z,11.20
2018-12-02T14:32:43.356Z,11.20
2018-12-02T14:35:11.830Z,11.20
2018-12-02T14:37:40.359Z,11.20
2018-12-02T14:40:13.287Z,11.20
2018-12-02T14:42:43.207Z,11.30
2018-12-02T14:45:13.299Z,11.30
2018-12-02T14:47:41.915Z,11.30
2018-12-02T14:50:12.113Z,11.30
2018-12-02T14:52:40.615Z,11.30
2018-12-02T14:55:10.992Z,11.30
2018-12-02T14:57:39.509Z,11.30
2018-12-02T15:00:13.159Z,11.40
2018-12-02T15:02:41.642Z,11.40
2018-12-02T15:05:11.223Z,11.40
2018-12-02T15:07:39.711Z,11.40
2018-12-02T15:10:14.391Z,11.40
2018-12-02T15:12:43.427Z,11.50
2018-12-02T15:15:13.412Z,11.40
2018-12-02T15:17:42.124Z,11.50
2018-12-02T15:20:12.818Z,11.50
2018-12-02T15:22:41.348Z,11.50
2018-12-02T15:25:11.459Z,11.50
2018-12-02T15:27:39.947Z,11.50
2018-12-02T15:30:14.427Z,11.50
2018-12-02T15:32:45.159Z,11.50
2018-12-02T15:35:13.619Z,11.50
2018-12-02T15:37:42.112Z,11.50
2018-12-02T15:40:12.773Z,11.60
2018-12-02T15:42:52.367Z,11.50
2018-12-02T15:45:21.916Z,11.50
2018-12-02T15:47:50.428Z,11.50
2018-12-02T15:50:20.911Z,11.50
2018-12-02T15:52:49.455Z,11.50
2018-12-02T15:55:21.355Z,11.50
2018-12-02T15:57:49.861Z,11.50
2018-12-02T16:00:22.527Z,11.50
2018-12-02T16:02:51.019Z,11.60
2018-12-02T16:05:19.508Z,11.60
2018-12-02T16:07:48.002Z,11.60
2018-12-02T16:10:16.463Z,11.60
2018-12-02T16:12:46.160Z,11.60
2018-12-02T16:15:15.612Z,11.60
2018-12-02T16:17:44.659Z,11.60
2018-12-02T16:20:16.611Z,11.60
2018-12-02T16:22:45.124Z,11.70
2018-12-02T16:25:13.623Z,11.60
2018-12-02T16:27:42.099Z,11.60
2018-12-02T16:30:19.063Z,11.60
2018-12-02T16:32:52.919Z,11.60
2018-12-02T16:35:22.120Z,11.60
2018-12-02T16:37:52.583Z,11.70
2018-12-02T16:40:22.239Z,11.70
2018-12-02T16:42:51.794Z,11.70
2018-12-02T16:45:20.252Z,11.70
2018-12-02T16:47:50.106Z,11.70
2018-12-02T16:50:22.897Z,11.70
2018-12-02T16:52:52.391Z,11.70
2018-12-02T16:55:22.786Z,11.70
2018-12-02T16:57:57.855Z,11.70
2018-12-02T17:00:32.643Z,11.70
2018-12-02T17:03:01.139Z,11.70
2018-12-02T17:05:29.587Z,11.70
2018-12-02T17:07:58.049Z,11.70
2018-12-02T17:10:26.536Z,11.70
2018-12-02T17:12:54.987Z,11.70
2018-12-02T17:15:23.483Z,11.70
2018-12-02T17:17:51.936Z,11.70
2018-12-02T17:20:20.411Z,11.70
2018-12-02T17:22:48.883Z,11.70
2018-12-02T17:25:17.362Z,11.70
2018-12-02T17:27:46.307Z,11.80
2018-12-02T17:30:19.591Z,11.80
2018-12-02T17:32:48.047Z,11.80
2018-12-02T17:35:16.525Z,11.70
2018-12-02T17:37:44.976Z,11.70
2018-12-02T17:40:17.382Z,11.70
2018-12-02T17:42:45.842Z,11.70
2018-12-02T17:45:14.375Z,11.70
2018-12-02T17:47:42.892Z,11.70
2018-12-02T17:50:13.815Z,11.70
2018-12-02T17:52:43.483Z,11.70
2018-12-02T17:55:11.932Z,11.70
2018-12-02T17:57:40.446Z,11.80
2018-12-02T18:00:21.779Z,11.80
2018-12-02T18:02:50.251Z,11.80
2018-12-02T18:05:21.447Z,11.80
2018-12-02T18:07:49.927Z,11.80
2018-12-02T18:10:18.382Z,11.80
2018-12-02T18:12:46.872Z,11.80
2018-12-02T18:15:16.926Z,11.70
2018-12-02T18:17:45.438Z,11.70
2018-12-02T18:20:15.081Z,11.80
2018-12-02T18:22:43.655Z,11.80
2018-12-02T18:25:13.174Z,11.80
2018-12-02T18:27:41.682Z,11.80
2018-12-02T18:30:14.463Z,11.80
2018-12-02T18:32:42.995Z,11.80
2018-12-02T18:35:32.930Z,11.80
2018-12-02T18:38:07.470Z,11.80
2018-12-02T18:40:36.335Z,11.90
2018-12-02T18:43:05.836Z,11.90
2018-12-02T18:45:34.315Z,11.90
2018-12-02T18:48:02.771Z,11.80
2018-12-02T18:50:31.332Z,11.90
2018-12-02T18:53:00.109Z,11.90
2018-12-02T18:55:28.357Z,11.90
2018-12-02T18:57:56.806Z,11.90
2018-12-02T19:00:30.591Z,11.90
2018-12-02T19:02:59.094Z,11.90
2018-12-02T19:05:27.567Z,11.90
2018-12-02T19:07:56.042Z,11.90
2018-12-02T19:10:26.000Z,11.90
2018-12-02T19:12:54.598Z,11.90
2018-12-02T19:15:23.071Z,11.90
2018-12-02T19:17:51.531Z,11.90
2018-12-02T19:20:23.529Z,11.90
2018-12-02T19:22:53.494Z,11.90
2018-12-02T19:25:23.743Z,11.90
2018-12-02T19:27:52.199Z,11.80
2018-12-02T19:30:20.723Z,11.80
2018-12-02T19:32:49.341Z,11.80
2018-12-02T19:35:25.787Z,11.80
2018-12-02T19:37:56.058Z,11.70
2018-12-02T19:40:24.510Z,11.70
2018-12-02T19:42:53.043Z,11.70
2018-12-02T19:45:21.993Z,11.70
2018-12-02T19:47:50.542Z,11.70
2018-12-02T19:50:20.667Z,11.70
2018-12-02T19:52:50.042Z,11.70
2018-12-02T19:55:18.573Z,11.70
2018-12-02T19:57:48.443Z,11.70
2018-12-02T20:00:25.191Z,11.70
2018-12-02T20:02:54.259Z,11.80
2018-12-02T20:05:22.764Z,11.80
2018-12-02T20:07:53.852Z,11.80
2018-12-02T20:10:24.856Z,11.80
2018-12-02T20:12:53.506Z,11.80
2018-12-02T20:15:22.058Z,11.80
2018-12-02T20:17:50.547Z,11.80
2018-12-02T20:20:25.150Z,11.80
2018-12-02T20:22:54.015Z,11.80
2018-12-02T20:25:23.947Z,11.80
2018-12-02T20:27:56.153Z,11.80
2018-12-02T20:30:24.640Z,11.80
2018-12-02T20:32:53.133Z,11.80
2018-12-02T20:35:21.592Z,11.80
2018-12-02T20:37:50.106Z,11.80
2018-12-02T20:40:20.030Z,11.80
2018-12-02T20:42:49.407Z,11.80
2018-12-02T20:45:18.562Z,11.90
2018-12-02T20:47:47.102Z,11.90
2018-12-02T20:50:16.790Z,11.90
2018-12-02T20:52:46.192Z,11.80
2018-12-02T20:55:17.099Z,11.80
2018-12-02T20:57:45.611Z,11.80
2018-12-02T21:00:18.140Z,11.90
2018-12-02T21:02:50.473Z,11.90
2018-12-02T21:05:22.287Z,11.90
2018-12-02T21:07:50.775Z,11.90
2018-12-02T21:10:19.222Z,11.90
2018-12-02T21:12:47.704Z,11.90
2018-12-02T21:15:16.204Z,11.90
2018-12-02T21:17:44.699Z,11.90
2018-12-02T21:20:13.603Z,11.90
2018-12-02T21:22:42.066Z,11.90
2018-12-02T21:25:15.359Z,11.90
2018-12-02T21:27:43.962Z,11.80
2018-12-02T21:30:17.687Z,11.80
2018-12-02T21:32:46.183Z,11.80
2018-12-02T21:35:14.711Z,11.80
2018-12-02T21:37:43.384Z,11.80
2018-12-02T21:40:13.183Z,11.80
2018-12-02T21:42:41.767Z,11.80
2018-12-02T21:45:11.439Z,11.80
2018-12-02T21:47:41.503Z,11.80
2018-12-02T21:50:12.575Z,11.80
2018-12-02T21:52:41.027Z,11.80
2018-12-02T21:55:09.560Z,11.90
2018-12-02T21:57:38.038Z,11.90
2018-12-02T22:00:18.843Z,11.90
2018-12-02T22:02:47.640Z,11.90
2018-12-02T22:05:16.147Z,12.00
2018-12-02T22:07:44.651Z,12.00
2018-12-02T22:10:16.679Z,12.00
2018-12-02T22:12:45.167Z,12.00
2018-12-02T22:15:13.659Z,12.00
2018-12-02T22:17:42.145Z,12.00
2018-12-02T22:20:12.994Z,12.00
2018-12-02T22:22:42.023Z,12.10
2018-12-02T22:25:15.675Z,12.10
2018-12-02T22:27:45.511Z,12.20
2018-12-02T22:30:15.226Z,12.10
2018-12-02T22:32:43.736Z,12.20
2018-12-02T22:35:13.159Z,12.20
2018-12-02T22:37:41.900Z,12.20
2018-12-02T22:40:14.646Z,12.20
2018-12-02T22:42:43.123Z,12.20
2018-12-02T22:45:13.114Z,12.20
2018-12-02T22:47:41.615Z,12.20
2018-12-02T22:50:14.284Z,12.20
2018-12-02T22:52:43.214Z,12.20
2018-12-02T22:55:12.136Z,12.20
2018-12-02T22:57:40.623Z,12.20
2018-12-02T23:00:30.163Z,12.20
2018-12-02T23:03:04.168Z,12.20
2018-12-02T23:05:32.952Z,12.20
2018-12-02T23:08:02.061Z,12.20
2018-12-02T23:10:30.595Z,12.20
2018-12-02T23:12:59.107Z,12.20
2018-12-02T23:15:27.615Z,12.20
2018-12-02T23:17:56.328Z,12.20
2018-12-02T23:20:25.095Z,12.20
2018-12-02T23:22:53.629Z,12.10
2018-12-02T23:25:22.137Z,12.20
2018-12-02T23:27:50.696Z,12.10
2018-12-02T23:30:20.551Z,12.20
2018-12-02T23:32:49.328Z,12.20
2018-12-02T23:35:17.847Z,12.20
2018-12-02T23:37:46.346Z,12.20
2018-12-02T23:40:20.455Z,12.20
2018-12-02T23:42:49.703Z,12.20
2018-12-02T23:45:18.733Z,12.20
2018-12-02T23:47:47.263Z,12.10
2018-12-02T23:50:17.775Z,12.10
2018-12-02T23:52:46.494Z,12.10
2018-12-02T23:55:18.443Z,12.10
2018-12-02T23:57:47.276Z,12.10
